createdAt,value
2019-03-04T00:01:14.772Z,51.29
2019-03-04T00:03:43.031Z,51.63
2019-03-04T00:06:11.311Z,51.21
2019-03-04T00:08:39.569Z,50.59
2019-03-04T00:11:07.973Z,49.79
2019-03-04T00:13:36.717Z,51.39
2019-03-04T00:16:05.052Z,50.74
2019-03-04T00:18:33.374Z,49.55
2019-03-04T00:21:01.668Z,49.54
2019-03-04T00:23:29.915Z,49.29
2019-03-04T00:25:58.204Z,50.80
2019-03-04T00:28:26.459Z,50.50
2019-03-04T00:30:54.813Z,50.00
2019-03-04T00:33:23.064Z,50.47
2019-03-04T00:35:51.341Z,49.03
2019-03-04T00:38:20.906Z,48.95
2019-03-04T00:40:49.823Z,49.33
2019-03-04T00:43:18.095Z,49.27
2019-03-04T00:45:46.825Z,50.05
2019-03-04T00:48:15.096Z,49.98
2019-03-04T00:50:43.352Z,49.10
2019-03-04T00:53:11.608Z,50.12
2019-03-04T00:55:39.882Z,48.36
2019-03-04T00:58:08.161Z,48.68
2019-03-04T01:00:36.920Z,47.52
2019-03-04T01:03:05.867Z,47.24
2019-03-04T01:05:34.113Z,47.96
2019-03-04T01:08:02.375Z,47.92
2019-03-04T01:10:30.646Z,47.35
2019-03-04T01:12:58.915Z,48.02
2019-03-04T01:15:27.187Z,48.47
2019-03-04T01:17:55.448Z,48.35
2019-03-04T01:20:23.747Z,49.44
2019-03-04T01:22:52.019Z,51.95
2019-03-04T01:25:20.770Z,52.76
2019-03-04T01:27:49.093Z,52.13
2019-03-04T01:30:19.960Z,51.06
2019-03-04T01:32:49.155Z,50.67
2019-03-04T01:35:17.482Z,51.40
2019-03-04T01:37:45.746Z,51.13
2019-03-04T01:40:19.512Z,50.50
2019-03-04T01:42:47.789Z,50.25
2019-03-04T01:45:17.481Z,50.45
2019-03-04T01:47:45.750Z,50.32
2019-03-04T01:50:16.649Z,50.81
2019-03-04T01:52:45.453Z,49.84
2019-03-04T01:55:15.738Z,50.26
2019-03-04T01:57:44.000Z,49.44
2019-03-04T02:00:15.461Z,50.05
2019-03-04T02:02:43.876Z,50.08
2019-03-04T02:05:12.211Z,48.79
2019-03-04T02:07:40.554Z,49.16
2019-03-04T02:10:14.289Z,49.70
2019-03-04T02:12:44.567Z,49.28
2019-03-04T02:15:14.677Z,49.17
2019-03-04T02:17:43.013Z,48.51
2019-03-04T02:20:16.994Z,49.12
2019-03-04T02:22:45.792Z,49.19
2019-03-04T02:25:16.516Z,48.84
2019-03-04T02:27:50.185Z,49.60
2019-03-04T02:30:24.348Z,49.19
2019-03-04T02:32:52.617Z,50.03
2019-03-04T02:35:20.959Z,49.55
2019-03-04T02:37:49.204Z,49.21
2019-03-04T02:40:17.506Z,50.80
2019-03-04T02:42:45.731Z,50.33
2019-03-04T02:45:16.937Z,50.70
2019-03-04T02:47:45.201Z,50.47
2019-03-04T02:50:13.622Z,50.33
2019-03-04T02:52:41.892Z,49.95
2019-03-04T02:55:10.231Z,51.31
2019-03-04T02:57:38.549Z,49.17
2019-03-04T03:00:09.996Z,50.07
2019-03-04T03:02:38.280Z,49.68
2019-03-04T03:05:07.977Z,49.01
2019-03-04T03:07:36.279Z,50.19
2019-03-04T03:10:07.590Z,49.05
2019-03-04T03:12:35.850Z,50.14
2019-03-04T03:15:11.777Z,48.54
2019-03-04T03:17:40.137Z,47.76
2019-03-04T03:20:10.930Z,46.26
2019-03-04T03:22:39.171Z,45.01
2019-03-04T03:25:14.882Z,46.95
2019-03-04T03:27:43.583Z,47.51
2019-03-04T03:30:20.355Z,47.50
2019-03-04T03:32:48.624Z,45.69
2019-03-04T03:35:16.861Z,46.50
2019-03-04T03:37:45.179Z,47.92
2019-03-04T03:40:18.038Z,46.75
2019-03-04T03:42:46.323Z,45.48
2019-03-04T03:45:15.129Z,47.57
2019-03-04T03:47:43.377Z,48.04
2019-03-04T03:50:14.233Z,47.73
2019-03-04T03:52:42.510Z,49.17
2019-03-04T03:55:12.306Z,48.04
2019-03-04T03:57:40.553Z,47.95
2019-03-04T04:00:17.820Z,47.38
2019-03-04T04:02:46.078Z,46.91
2019-03-04T04:05:14.432Z,47.74
2019-03-04T04:07:42.793Z,47.02
2019-03-04T04:10:13.188Z,48.74
2019-03-04T04:12:41.453Z,46.50
2019-03-04T04:15:11.940Z,46.56
2019-03-04T04:17:40.225Z,47.07
2019-03-04T04:20:09.806Z,47.52
2019-03-04T04:22:38.089Z,46.64
2019-03-04T04:25:07.828Z,48.86
2019-03-04T04:27:36.087Z,46.60
2019-03-04T04:30:14.697Z,50.73
2019-03-04T04:32:42.993Z,50.07
2019-03-04T04:35:11.324Z,50.95
2019-03-04T04:37:39.597Z,48.63
2019-03-04T04:40:10.204Z,48.87
2019-03-04T04:42:38.452Z,49.31
2019-03-04T04:45:08.161Z,49.56
2019-03-04T04:47:37.179Z,49.13
2019-03-04T04:50:08.869Z,47.27
2019-03-04T04:52:37.141Z,47.24
2019-03-04T04:55:06.466Z,48.43
2019-03-04T04:57:34.739Z,46.91
2019-03-04T05:00:02.989Z,47.58
2019-03-04T05:02:31.236Z,47.74
2019-03-04T05:04:59.577Z,47.68
2019-03-04T05:07:27.837Z,47.44
2019-03-04T05:09:56.112Z,48.05
2019-03-04T05:12:24.381Z,48.31
2019-03-04T05:14:52.649Z,47.71
2019-03-04T05:17:20.908Z,48.00
2019-03-04T05:19:49.175Z,47.12
2019-03-04T05:22:17.452Z,48.09
2019-03-04T05:24:45.720Z,48.32
2019-03-04T05:27:13.976Z,48.10
2019-03-04T05:29:42.388Z,48.20
2019-03-04T05:32:10.591Z,46.84
2019-03-04T05:34:38.864Z,48.70
2019-03-04T05:37:07.177Z,48.27
2019-03-04T05:39:35.393Z,47.81
2019-03-04T05:42:03.675Z,46.36
2019-03-04T05:44:31.925Z,46.79
2019-03-04T05:47:00.197Z,47.38
2019-03-04T05:49:28.451Z,46.57
2019-03-04T05:51:56.725Z,46.13
2019-03-04T05:54:25.021Z,47.19
2019-03-04T05:56:53.271Z,46.75
2019-03-04T05:59:21.538Z,46.97
2019-03-04T06:01:52.982Z,46.45
2019-03-04T06:04:21.266Z,46.16
2019-03-04T06:06:56.768Z,46.45
2019-03-04T06:09:25.041Z,45.60
2019-03-04T06:11:53.304Z,45.92
2019-03-04T06:14:21.581Z,45.27
2019-03-04T06:16:49.826Z,46.06
2019-03-04T06:19:18.088Z,44.71
2019-03-04T06:21:48.432Z,46.50
2019-03-04T06:24:16.700Z,47.09
2019-03-04T06:26:44.960Z,46.59
2019-03-04T06:29:13.216Z,44.55
2019-03-04T06:31:41.482Z,45.69
2019-03-04T06:34:09.769Z,45.36
2019-03-04T06:36:38.052Z,47.08
2019-03-04T06:39:06.915Z,46.85
2019-03-04T06:41:35.184Z,47.95
2019-03-04T06:44:03.457Z,50.99
2019-03-04T06:46:31.745Z,49.53
2019-03-04T06:49:00.009Z,49.93
2019-03-04T06:51:34.110Z,52.59
2019-03-04T06:54:11.433Z,53.84
2019-03-04T06:56:42.865Z,53.22
2019-03-04T06:59:23.450Z,53.49
2019-03-04T07:02:06.936Z,52.92
2019-03-04T07:04:47.436Z,52.72
2019-03-04T07:07:15.688Z,51.58
2019-03-04T07:09:44.216Z,51.35
2019-03-04T07:12:12.478Z,49.95
2019-03-04T07:14:40.749Z,49.95
2019-03-04T07:17:09.236Z,50.01
2019-03-04T07:19:38.293Z,50.62
2019-03-04T07:22:06.652Z,49.18
2019-03-04T07:24:35.013Z,48.65
2019-03-04T07:27:03.272Z,48.74
2019-03-04T07:29:31.525Z,48.81
2019-03-04T07:31:59.835Z,47.32
2019-03-04T07:34:28.073Z,47.92
2019-03-04T07:36:56.326Z,48.61
2019-03-04T07:39:24.591Z,48.59
2019-03-04T07:41:52.870Z,46.67
2019-03-04T07:44:21.221Z,47.48
2019-03-04T07:46:49.481Z,46.82
2019-03-04T07:49:17.755Z,47.02
2019-03-04T07:51:46.018Z,46.94
2019-03-04T07:54:14.948Z,46.42
2019-03-04T07:56:43.198Z,46.62
2019-03-04T07:59:11.483Z,45.49
2019-03-04T08:01:39.739Z,45.37
2019-03-04T08:04:08.018Z,46.33
2019-03-04T08:06:36.272Z,46.34
2019-03-04T08:09:28.542Z,45.61
2019-03-04T08:12:28.799Z,45.83
2019-03-04T08:14:57.076Z,46.29
2019-03-04T08:17:25.363Z,45.79
2019-03-04T08:19:53.782Z,45.72
2019-03-04T08:22:22.049Z,45.23
2019-03-04T08:24:50.319Z,43.33
2019-03-04T08:27:18.600Z,44.32
2019-03-04T08:29:46.971Z,44.19
2019-03-04T08:32:15.231Z,44.77
2019-03-04T08:34:43.486Z,44.37
2019-03-04T08:37:11.759Z,44.17
2019-03-04T08:39:40.030Z,43.98
2019-03-04T08:42:08.297Z,42.74
2019-03-04T08:44:36.556Z,43.99
2019-03-04T08:47:04.825Z,45.41
2019-03-04T08:49:33.088Z,44.75
2019-03-04T08:52:01.346Z,53.50
2019-03-04T08:54:29.959Z,100.00
2019-03-04T09:09:17.204Z,100.00
